Terminal Aerodrome Forecast
Issued by NWS

Home | Current Version | Previous Version | Text Only | Print | Product List | Glossary On
Versions: 1 2 3 4 5 6 7 8 9 10 11 12 13 14 15
000
FTAK31 PAJN 271700
TAFASI
TAF
PASI 271732Z 2718/2818 30007KT P6SM VCSH SCT020 OVC035
      TEMPO 2718/2722 -SHRA BKN020 OVC030
     FM272200 29015KT P6SM VCSH SCT025 BKN035 OVC060
     FM280600 31010KT P6SM SCT015 OVC025
     FM281200 32007KT P6SM BKN012 OVC020=

USA.gov is the U.S. government's official web portal to all federal, state and local government web resources and services.